Time;durP1;ratioP1;P1;durP2;ratioP2;P2;SDS_P1;SDS_P2;PMS_P1;PMS_P2;Temp;Humidity;BMP_temperature;BMP_pressure;BME280_temperature;BME280_humidity;BME280_pressure;Samples;Min_cycle;Max_cycle;Signal;HPM_P1;HPM_P2
2023/11/25 00:00:22;;;;;;;16.70;10.70;;;;;;;-6.28;100.00;98765.16;5033412;28;20044;-66
2023/11/25 00:02:51;;;;;;;14.93;10.43;;;;;;;-6.43;100.00;98740.31;5034260;28;20409;-67
2023/11/25 00:05:17;;;;;;;17.42;10.77;;;;;;;-6.87;100.00;98671.69;5034289;28;20099;-66
2023/11/25 00:07:42;;;;;;;15.67;10.23;;;;;;;-6.35;100.00;98753.59;5034122;28;20134;-68
2023/11/25 00:10:09;;;;;;;16.07;10.03;;;;;;;-6.07;100.00;98771.47;5034104;28;20036;-66
2023/11/25 00:12:35;;;;;;;17.55;9.95;;;;;;;-5.95;100.00;98765.41;5034197;28;20037;-67
2023/11/25 00:15:02;;;;;;;17.13;10.07;;;;;;;-5.95;100.00;98767.19;5034303;28;20041;-66
2023/11/25 00:17:31;;;;;;;23.17;13.05;;;;;;;-6.01;100.00;98770.22;5034086;28;20034;-68
2023/11/25 00:19:57;;;;;;;14.68;10.70;;;;;;;-6.19;100.00;98748.16;5034006;28;20037;-68
2023/11/25 00:22:23;;;;;;;18.48;12.00;;;;;;;-6.47;100.00;98697.44;5034040;28;20256;-66
2023/11/25 00:24:49;;;;;;;17.87;12.23;;;;;;;-6.24;100.00;98751.06;5034161;28;20140;-66
2023/11/25 00:27:17;;;;;;;16.15;10.38;;;;;;;-6.33;100.00;98773.25;5033758;28;20519;-67
2023/11/25 00:29:42;;;;;;;17.65;10.98;;;;;;;-6.47;100.00;98762.19;5033839;28;20042;-67
2023/11/25 00:32:08;;;;;;;15.50;11.83;;;;;;;-6.34;100.00;98786.31;5033769;28;20048;-65
2023/11/25 00:34:34;;;;;;;16.10;10.43;;;;;;;-6.35;100.00;98797.63;5033641;28;20037;-67
2023/11/25 00:37:00;;;;;;;17.20;12.80;;;;;;;-7.31;100.00;98623.78;5033569;28;20601;-68
2023/11/25 00:39:27;;;;;;;24.23;14.97;;;;;;;-6.14;100.00;98792.72;5033913;28;20061;-68
2023/11/25 00:41:53;;;;;;;25.67;15.23;;;;;;;-6.16;100.00;98790.22;5032506;28;20041;-65
2023/11/25 00:44:19;;;;;;;15.00;10.82;;;;;;;-6.21;100.00;98797.50;5033815;28;20063;-67
2023/11/25 00:46:45;;;;;;;13.57;11.47;;;;;;;-6.30;100.00;98792.94;5033424;28;20497;-68
2023/11/25 00:49:12;;;;;;;17.57;12.03;;;;;;;-6.20;100.00;98803.50;5032883;28;20039;-65
2023/11/25 00:51:40;;;;;;;18.48;12.02;;;;;;;-6.37;100.00;98771.78;5032212;28;20393;-67
2023/11/25 00:54:06;;;;;;;19.45;15.40;;;;;;;-6.12;100.00;98812.41;5033488;28;20033;-66
2023/11/25 00:56:31;;;;;;;15.90;11.77;;;;;;;-6.17;100.00;98814.47;5033379;28;20121;-67
2023/11/25 00:58:57;;;;;;;16.87;12.67;;;;;;;-6.33;100.00;98793.16;5034441;28;20124;-66
2023/11/25 01:01:23;;;;;;;17.75;13.27;;;;;;;-6.17;100.00;98816.25;5034513;28;20401;-67
2023/11/25 01:03:49;;;;;;;14.97;11.43;;;;;;;-6.36;100.00;98798.53;5033338;28;20037;-67
2023/11/25 01:06:14;;;;;;;21.57;13.63;;;;;;;-6.22;100.00;98821.75;5033388;28;20065;-66
2023/11/25 01:08:40;;;;;;;18.27;12.80;;;;;;;-6.29;100.00;98807.56;5032061;28;20505;-67
2023/11/25 01:11:05;;;;;;;22.33;15.93;;;;;;;-6.17;100.00;98824.84;5033113;28;20044;-66
2023/11/25 01:13:31;;;;;;;22.10;15.27;;;;;;;-6.37;100.00;98794.28;5033064;28;20103;-69
2023/11/25 01:15:57;;;;;;;22.70;16.23;;;;;;;-6.32;100.00;98810.34;5033367;28;20116;-66
2023/11/25 01:18:23;;;;;;;23.90;16.63;;;;;;;-6.31;100.00;98806.84;5032605;28;20805;-68
2023/11/25 01:20:48;;;;;;;22.83;15.90;;;;;;;-6.21;100.00;98833.75;5033121;28;20026;-68
2023/11/25 01:23:15;;;;;;;16.73;12.93;;;;;;;-6.29;100.00;98825.69;5032887;28;20489;-66
2023/11/25 01:25:41;;;;;;;20.17;13.88;;;;;;;-6.09;100.00;98821.72;5032471;28;20033;-66
2023/11/25 01:28:07;;;;;;;17.50;12.27;;;;;;;-6.36;100.00;98778.66;5032508;28;20115;-67
2023/11/25 01:30:34;;;;;;;13.63;10.47;;;;;;;-6.21;99.91;98807.84;5032506;28;20873;-66
2023/11/25 01:33:00;;;;;;;12.52;9.15;;;;;;;-6.12;100.00;98846.06;5032544;28;20080;-68
2023/11/25 01:35:25;;;;;;;14.23;10.73;;;;;;;-6.18;99.83;98849.09;5031358;28;20081;-66
2023/11/25 01:37:51;;;;;;;13.23;9.40;;;;;;;-6.48;100.00;98805.38;5032670;28;20060;-67
2023/11/25 01:40:17;;;;;;;12.87;9.00;;;;;;;-6.42;100.00;98811.88;5032556;28;20038;-65
2023/11/25 01:42:43;;;;;;;17.63;9.67;;;;;;;-6.33;99.57;98844.97;5032853;28;20045;-64
2023/11/25 01:45:09;;;;;;;12.93;9.73;;;;;;;-6.22;100.00;98846.81;5032487;28;20072;-69
2023/11/25 01:47:36;;;;;;;16.98;9.48;;;;;;;-6.22;100.00;98850.25;5032249;28;20041;-67
2023/11/25 01:50:05;;;;;;;15.07;9.15;;;;;;;-6.61;99.68;98795.03;5032355;28;20083;-66
2023/11/25 01:52:33;;;;;;;17.08;11.98;;;;;;;-6.30;100.00;98852.53;5032540;28;20540;-66
2023/11/25 01:55:03;;;;;;;14.27;9.35;;;;;;;-6.25;100.00;98864.22;5032220;28;20064;-65
2023/11/25 01:57:31;;;;;;;14.35;9.98;;;;;;;-6.35;100.00;98850.25;5032096;28;20045;-68
2023/11/25 01:59:57;;;;;;;15.60;9.93;;;;;;;-6.25;100.00;98866.00;5031790;28;20048;-68
2023/11/25 02:02:34;;;;;;;12.98;9.50;;;;;;;-6.33;100.00;98869.09;5031617;28;20558;-66
2023/11/25 02:05:01;;;;;;;15.77;9.63;;;;;;;-6.32;100.00;98878.53;5031949;28;20041;-67
2023/11/25 02:07:26;;;;;;;14.95;9.93;;;;;;;-6.54;100.00;98851.56;5031846;28;20064;-67
2023/11/25 02:09:52;;;;;;;15.83;9.73;;;;;;;-6.40;100.00;98877.38;5031955;28;20489;-66
2023/11/25 02:12:17;;;;;;;15.37;10.57;;;;;;;-6.38;100.00;98885.84;5030619;28;20457;-67
2023/11/25 02:14:43;;;;;;;14.03;9.43;;;;;;;-6.38;100.00;98883.28;5031801;28;20102;-65
2023/11/25 02:17:09;;;;;;;14.57;9.00;;;;;;;-6.87;100.00;98790.75;5032131;28;20408;-66
2023/11/25 02:19:36;;;;;;;13.70;8.77;;;;;;;-6.32;100.00;98867.34;5031887;28;20038;-68
2023/11/25 02:22:06;;;;;;;15.82;9.68;;;;;;;-6.33;100.00;98866.50;5031599;28;20520;-66
2023/11/25 02:24:32;;;;;;;12.95;8.20;;;;;;;-6.33;100.00;98865.69;5031340;28;20110;-65
2023/11/25 02:27:03;;;;;;;11.65;8.43;;;;;;;-6.19;100.00;98888.88;5031384;28;20103;-64
2023/11/25 02:29:35;;;;;;;14.32;9.32;;;;;;;-6.40;99.32;98847.13;5031512;28;20037;-66
2023/11/25 02:32:04;;;;;;;12.02;9.40;;;;;;;-6.23;98.24;98886.63;5031962;28;20073;-68
2023/11/25 02:34:30;;;;;;;9.23;7.60;;;;;;;-6.73;99.28;98824.28;5031821;28;20044;-65
2023/11/25 02:36:57;;;;;;;10.40;8.02;;;;;;;-6.29;98.32;98880.09;5031555;28;20507;-67
2023/11/25 02:39:24;;;;;;;12.38;9.82;;;;;;;-6.65;98.52;98826.38;5013830;28;20049;-65
2023/11/25 02:41:51;;;;;;;13.43;8.55;;;;;;;-6.31;97.82;98875.00;5027778;28;20576;-67
2023/11/25 02:44:17;;;;;;;13.18;9.05;;;;;;;-6.17;98.50;98894.78;5031589;28;20038;-68
2023/11/25 02:46:48;;;;;;;14.05;9.95;;;;;;;-6.37;98.34;98871.97;5031307;28;20095;-68
2023/11/25 02:49:14;;;;;;;12.77;8.52;;;;;;;-6.25;97.38;98894.50;5031492;28;20099;-64
2023/11/25 02:51:54;;;;;;;14.45;9.52;;;;;;;-6.18;98.32;98907.84;5031303;28;20040;-68
2023/11/25 02:54:21;;;;;;;20.48;9.32;;;;;;;-6.20;98.93;98923.50;5029885;28;20397;-67
2023/11/25 02:56:46;;;;;;;16.98;10.55;;;;;;;-6.27;98.80;98901.53;5031398;28;20511;-66
2023/11/25 02:59:12;;;;;;;12.57;9.13;;;;;;;-6.49;99.25;98855.50;5031466;28;20073;-68
2023/11/25 03:01:47;;;;;;;13.73;8.97;;;;;;;-5.97;99.64;98930.56;5031514;28;20040;-67
2023/11/25 03:04:17;;;;;;;14.77;11.40;;;;;;;-5.99;98.79;98922.06;5030380;28;20272;-66
2023/11/25 03:06:46;;;;;;;15.60;9.55;;;;;;;-5.94;99.50;98904.44;5029717;28;20049;-65
2023/11/25 03:09:13;;;;;;;13.80;9.20;;;;;;;-5.96;98.00;98916.69;5031544;28;20029;-66
2023/11/25 03:11:39;;;;;;;15.13;9.38;;;;;;;-5.91;97.55;98947.47;5031372;28;20377;-68
2023/11/25 03:14:05;;;;;;;13.10;9.20;;;;;;;-5.95;99.31;98944.25;5031541;28;20441;-71
2023/11/25 03:16:33;;;;;;;15.33;9.37;;;;;;;-6.01;99.79;98934.31;5031223;28;20041;-67
2023/11/25 03:19:00;;;;;;;14.90;10.50;;;;;;;-6.02;99.75;98940.44;5031170;28;20048;-66
2023/11/25 03:21:25;;;;;;;17.98;10.32;;;;;;;-6.02;100.00;98958.56;5030882;28;20137;-65
2023/11/25 03:23:51;;;;;;;14.43;10.10;;;;;;;-6.15;99.79;98942.16;5031311;28;20037;-65
2023/11/25 03:26:17;;;;;;;17.43;10.53;;;;;;;-6.11;100.00;98964.34;5030938;28;20110;-64
2023/11/25 03:28:44;;;;;;;13.80;10.55;;;;;;;-6.37;100.00;98926.38;5029779;28;20065;-67
2023/11/25 03:31:10;;;;;;;16.95;9.88;;;;;;;-6.18;100.00;98934.59;5031304;28;20037;-65
2023/11/25 03:33:36;;;;;;;16.90;11.15;;;;;;;-6.25;100.00;98918.63;5035244;28;20095;-66
2023/11/25 03:36:03;;;;;;;15.43;10.57;;;;;;;-6.04;100.00;98959.59;5034958;28;20064;-67
2023/11/25 03:38:29;;;;;;;18.10;11.02;;;;;;;-5.87;100.00;98961.03;5037251;28;20033;-66
2023/11/25 03:40:56;;;;;;;17.08;11.27;;;;;;;-5.94;100.00;98951.09;5039673;28;20037;-65
2023/11/25 03:43:23;;;;;;;18.58;11.32;;;;;;;-6.01;100.00;98936.91;5037039;28;20449;-65
2023/11/25 03:45:50;;;;;;;17.42;10.90;;;;;;;-5.77;100.00;98982.81;5034337;28;20489;-66
2023/11/25 03:48:16;;;;;;;17.50;10.63;;;;;;;-5.79;100.00;98976.88;5034301;28;20034;-67
2023/11/25 03:50:45;;;;;;;15.82;10.65;;;;;;;-5.81;99.61;98982.16;5034490;28;20388;-67
2023/11/25 03:53:11;;;;;;;15.80;11.13;;;;;;;-5.76;99.23;98995.69;5034737;28;20044;-67
2023/11/25 03:55:37;;;;;;;17.65;11.00;;;;;;;-5.84;97.81;98986.72;5034557;28;20042;-66
2023/11/25 03:58:04;;;;;;;17.03;9.83;;;;;;;-6.03;98.06;98977.66;5034483;28;20484;-66
2023/11/25 04:00:29;;;;;;;14.45;9.07;;;;;;;-5.95;97.65;99006.47;5034491;28;20065;-65
2023/11/25 04:02:55;;;;;;;20.07;10.40;;;;;;;-6.01;98.12;98996.50;5032727;28;20080;-65
2023/11/25 04:05:22;;;;;;;18.30;10.20;;;;;;;-5.96;97.47;98985.84;5034590;28;20581;-66
2023/11/25 04:07:48;;;;;;;15.75;9.15;;;;;;;-5.98;96.17;98992.88;5034056;28;20516;-67
2023/11/25 04:10:15;;;;;;;17.53;10.43;;;;;;;-6.23;95.82;98975.53;5034310;28;20050;-66
2023/11/25 04:12:48;;;;;;;23.35;10.98;;;;;;;-6.08;96.92;98990.06;5033060;28;20084;-66
2023/11/25 04:15:19;;;;;;;15.07;9.55;;;;;;;-6.20;96.89;98977.91;5033960;28;20041;-67
2023/11/25 04:17:45;;;;;;;17.48;8.07;;;;;;;-6.14;94.51;99006.00;5033776;28;20119;-65
2023/11/25 04:20:17;;;;;;;12.80;8.63;;;;;;;-6.06;93.43;99029.69;5033996;28;20072;-66
2023/11/25 04:22:45;;;;;;;14.77;8.25;;;;;;;-5.98;95.21;99037.78;5033784;28;20295;-68
2023/11/25 04:25:14;;;;;;;15.40;8.25;;;;;;;-6.15;92.75;99035.44;5032510;28;20038;-66
2023/11/25 04:27:42;;;;;;;16.88;9.50;;;;;;;-6.31;94.29;99037.38;5033780;28;20455;-69
2023/11/25 04:30:11;;;;;;;17.48;9.82;;;;;;;-6.33;95.19;99034.88;5032271;28;20077;-67
2023/11/25 04:32:40;;;;;;;14.98;10.05;;;;;;;-6.15;95.90;99048.41;5034123;28;20038;-69
2023/11/25 04:35:07;;;;;;;15.30;9.93;;;;;;;-6.33;95.52;98997.78;5033402;28;20429;-68
2023/11/25 04:37:33;;;;;;;18.15;11.95;;;;;;;-6.04;94.69;99063.28;5033482;28;20380;-65
2023/11/25 04:39:59;;;;;;;21.10;11.63;;;;;;;-6.18;96.54;99061.56;5031988;28;20643;-66
2023/11/25 04:42:25;;;;;;;15.07;10.53;;;;;;;-6.39;97.11;99037.84;5032995;28;20124;-67
2023/11/25 04:44:51;;;;;;;15.70;9.57;;;;;;;-6.34;98.58;99066.06;5032526;28;20052;-67
2023/11/25 04:47:16;;;;;;;15.90;10.67;;;;;;;-6.54;98.25;99027.66;5033416;28;20037;-67
2023/11/25 04:49:42;;;;;;;18.00;10.93;;;;;;;-6.37;97.59;99050.69;5033362;28;20120;-67
2023/11/25 04:52:08;;;;;;;17.00;11.27;;;;;;;-6.29;98.47;99064.84;5033447;28;20029;-67
2023/11/25 04:54:41;;;;;;;19.60;12.70;;;;;;;-6.34;98.68;99061.72;5031800;28;20049;-68
2023/11/25 04:57:07;;;;;;;17.42;10.43;;;;;;;-6.27;98.42;99062.16;5031657;28;20037;-67
2023/11/25 04:59:35;;;;;;;19.85;12.05;;;;;;;-6.34;99.01;99029.81;5032999;28;20044;-66
2023/11/25 05:02:02;;;;;;;21.92;11.95;;;;;;;-6.12;98.04;99060.31;5031836;28;20044;-68
2023/11/25 05:04:27;;;;;;;16.25;11.75;;;;;;;-6.30;97.46;99026.91;5033563;28;20428;-64
2023/11/25 05:06:53;;;;;;;22.43;13.53;;;;;;;-6.50;98.82;99001.47;5033229;28;20049;-68
2023/11/25 05:09:19;;;;;;;18.43;12.03;;;;;;;-6.21;98.75;99059.16;5033219;28;20393;-66
2023/11/25 05:11:45;;;;;;;24.17;15.00;;;;;;;-6.12;99.62;99078.47;5031270;28;20519;-66
2023/11/25 05:14:11;;;;;;;21.95;12.45;;;;;;;-6.20;100.00;99060.81;5032426;28;20041;-65
2023/11/25 05:16:37;;;;;;;26.43;13.57;;;;;;;-6.14;100.00;99049.22;5033717;28;20385;-65
2023/11/25 05:19:03;;;;;;;19.63;12.63;;;;;;;-6.11;100.00;99049.84;5033740;28;20298;-66
2023/11/25 05:21:29;;;;;;;23.75;13.13;;;;;;;-6.09;99.58;99066.13;5035636;28;20029;-65
2023/11/25 05:23:55;;;;;;;19.85;11.85;;;;;;;-6.33;98.83;99047.84;5037245;28;20041;-64
2023/11/25 05:26:25;;;;;;;25.38;13.73;;;;;;;-6.31;99.61;99081.41;5039092;28;20128;-66
2023/11/25 05:28:50;;;;;;;18.67;12.15;;;;;;;-6.56;99.65;99049.31;5033533;28;20080;-64
2023/11/25 05:31:16;;;;;;;15.80;9.77;;;;;;;-6.28;99.32;99086.41;5033155;28;20508;-65
2023/11/25 05:33:42;;;;;;;18.17;10.83;;;;;;;-6.29;98.83;99089.91;5033137;28;20065;-67
2023/11/25 05:36:08;;;;;;;17.58;10.98;;;;;;;-6.32;99.99;99084.94;5032823;28;20037;-68
2023/11/25 05:38:34;;;;;;;15.07;10.37;;;;;;;-6.29;99.94;99087.34;5032796;28;20045;-69
2023/11/25 05:41:02;;;;;;;21.63;11.70;;;;;;;-6.17;99.59;99103.84;5032487;28;20052;-64
2023/11/25 05:43:28;;;;;;;15.23;9.77;;;;;;;-6.17;98.18;99120.22;5032665;28;20083;-66
2023/11/25 05:45:53;;;;;;;15.67;10.30;;;;;;;-6.31;97.40;99112.50;5032091;28;20041;-65
2023/11/25 05:48:19;;;;;;;20.67;10.77;;;;;;;-6.81;97.63;99053.50;5027944;28;20079;-68
2023/11/25 05:50:44;;;;;;;23.30;12.30;;;;;;;-6.48;99.21;99120.50;5032511;28;20032;-67
2023/11/25 05:53:11;;;;;;;14.57;9.80;;;;;;;-6.49;100.00;99111.06;5032698;28;20033;-66
2023/11/25 05:55:36;;;;;;;13.02;8.85;;;;;;;-6.60;99.25;99081.50;5032089;28;20038;-68
2023/11/25 05:58:02;;;;;;;16.53;10.63;;;;;;;-6.40;99.29;99092.34;5031326;28;20565;-67
2023/11/25 06:00:29;;;;;;;18.40;11.20;;;;;;;-6.21;98.16;99103.22;5031178;28;20116;-68
2023/11/25 06:02:55;;;;;;;18.27;11.20;;;;;;;-6.19;98.30;99114.31;5032217;28;20040;-66
2023/11/25 06:05:21;;;;;;;16.25;10.93;;;;;;;-6.21;97.60;99134.31;5032096;28;20037;-64
2023/11/25 06:07:47;;;;;;;20.70;10.93;;;;;;;-6.18;97.08;99131.50;5031920;28;20060;-69
2023/11/25 06:10:13;;;;;;;13.60;9.90;;;;;;;-6.30;98.04;99127.13;5031812;28;20042;-70
2023/11/25 06:12:38;;;;;;;20.05;11.45;;;;;;;-6.42;98.53;99112.31;5032308;28;20116;-65
2023/11/25 06:15:05;;;;;;;18.63;10.47;;;;;;;-6.73;97.68;99080.56;5030694;28;20128;-68
2023/11/25 06:17:32;;;;;;;13.85;9.85;;;;;;;-6.31;99.86;99149.59;5031720;28;20087;-68
2023/11/25 06:19:58;;;;;;;14.70;9.77;;;;;;;-6.32;98.52;99147.94;5031685;28;20049;-66
2023/11/25 06:22:24;;;;;;;18.55;11.27;;;;;;;-6.27;98.97;99155.41;5031693;28;20069;-67
2023/11/25 06:24:49;;;;;;;22.77;13.43;;;;;;;-6.24;97.49;99165.59;5030258;28;20129;-64
2023/11/25 06:27:21;;;;;;;20.50;13.63;;;;;;;-6.39;96.97;99148.41;5031474;28;20065;-68
2023/11/25 06:29:48;;;;;;;14.55;9.23;;;;;;;-6.36;95.67;99176.69;5031808;28;20041;-65
2023/11/25 06:32:13;;;;;;;21.33;13.57;;;;;;;-6.43;96.81;99165.06;5031284;28;20075;-66
2023/11/25 06:34:39;;;;;;;15.57;10.70;;;;;;;-6.84;96.43;99108.91;5031681;28;20171;-68
2023/11/25 06:37:05;;;;;;;15.60;9.45;;;;;;;-6.55;96.96;99171.84;5030048;28;20045;-66
2023/11/25 06:39:32;;;;;;;17.27;10.67;;;;;;;-6.59;96.91;99172.94;5031689;28;20029;-65
2023/11/25 06:42:00;;;;;;;16.55;10.00;;;;;;;-6.53;97.95;99189.88;5033048;28;20432;-67
2023/11/25 06:44:27;;;;;;;17.58;9.85;;;;;;;-6.50;97.49;99194.84;5032506;28;20065;-65
2023/11/25 06:46:52;;;;;;;16.27;11.48;;;;;;;-6.42;97.14;99197.81;5013943;28;20049;-68
2023/11/25 06:49:18;;;;;;;13.97;9.40;;;;;;;-6.36;96.69;99197.41;5031608;28;20037;-69
2023/11/25 06:51:44;;;;;;;17.85;10.13;;;;;;;-6.34;97.32;99174.88;5031549;28;20056;-68
2023/11/25 06:54:10;;;;;;;16.13;11.20;;;;;;;-6.40;97.13;99175.22;5031920;28;20485;-66
2023/11/25 06:56:36;;;;;;;16.02;10.20;;;;;;;-6.55;96.06;99148.53;5031518;28;20048;-65
2023/11/25 06:59:02;;;;;;;16.43;11.27;;;;;;;-6.58;95.72;99172.84;5031768;28;20034;-65
2023/11/25 07:01:28;;;;;;;16.85;9.95;;;;;;;-6.90;96.89;99151.50;5029878;28;20029;-66
2023/11/25 07:03:53;;;;;;;16.33;10.43;;;;;;;-6.57;97.78;99220.31;5031267;28;20497;-69
2023/11/25 07:06:19;;;;;;;16.80;12.17;;;;;;;-6.48;97.87;99226.66;5031442;28;20512;-69
2023/11/25 07:08:45;;;;;;;14.93;9.80;;;;;;;-6.45;97.56;99226.47;5035412;28;20504;-66
2023/11/25 07:11:13;;;;;;;22.53;12.20;;;;;;;-6.74;97.61;99187.66;5035261;28;20040;-68
2023/11/25 07:13:39;;;;;;;17.48;10.57;;;;;;;-6.39;98.80;99218.34;5034688;28;20280;-66
2023/11/25 07:16:07;;;;;;;23.85;11.63;;;;;;;-6.17;99.60;99223.88;5034834;28;20049;-67
2023/11/25 07:18:33;;;;;;;16.83;11.30;;;;;;;-6.22;97.77;99209.53;5035482;28;20087;-66
2023/11/25 07:21:00;;;;;;;20.95;11.07;;;;;;;-6.12;97.44;99211.44;5017370;28;20052;-66
2023/11/25 07:23:26;;;;;;;18.92;12.55;;;;;;;-6.46;96.42;99160.06;5033451;28;20128;-67
2023/11/25 07:25:55;;;;;;;21.92;11.68;;;;;;;-6.08;96.89;99212.91;5034797;28;20061;-65
2023/11/25 07:28:24;;;;;;;22.30;11.07;;;;;;;-5.86;96.65;99224.50;5035201;28;20057;-66
2023/11/25 07:30:50;;;;;;;38.03;15.50;;;;;;;-5.79;94.66;99233.56;5035040;28;20053;-74
2023/11/25 07:33:15;;;;;;;32.30;14.03;;;;;;;-5.72;94.86;99234.84;5034028;28;20345;-66
2023/11/25 07:35:41;;;;;;;23.77;12.97;;;;;;;-5.71;94.32;99234.75;5034959;28;20124;-68
2023/11/25 07:38:07;;;;;;;19.60;12.00;;;;;;;-6.04;93.28;99203.22;5035823;28;20072;-69
2023/11/25 07:40:33;;;;;;;22.50;12.10;;;;;;;-5.85;93.38;99260.72;5036232;28;20171;-67
2023/11/25 07:43:00;;;;;;;19.55;11.32;;;;;;;-5.88;94.81;99258.31;5037873;28;20754;-68
2023/11/25 07:45:25;;;;;;;21.85;12.73;;;;;;;-5.87;93.44;99259.16;5020004;28;20033;-70
2023/11/25 07:47:54;;;;;;;21.87;13.23;;;;;;;-5.91;94.03;99271.50;5035437;28;20484;-67
2023/11/25 07:50:21;;;;;;;;;;;;;;;-5.94;95.19;99267.34;5034087;28;20060;-67
2023/11/25 07:52:47;;;;;;;19.35;12.20;;;;;;;-6.06;94.85;99272.47;5035901;28;19917;-68
2023/11/25 07:55:13;;;;;;;18.93;11.80;;;;;;;-6.19;95.17;99251.63;5034608;28;20064;-71
2023/11/25 07:57:39;;;;;;;15.13;10.30;;;;;;;-6.09;95.22;99255.31;5034563;28;20122;-72
2023/11/25 08:00:06;;;;;;;18.33;11.18;;;;;;;-5.91;95.17;99265.47;5034370;28;20064;-71
2023/11/25 08:02:33;;;;;;;17.92;10.75;;;;;;;-5.75;94.45;99271.34;5035061;28;20041;-68
2023/11/25 08:04:58;;;;;;;17.63;11.20;;;;;;;-5.78;93.64;99276.72;5036250;28;20037;-67
2023/11/25 08:07:24;;;;;;;18.37;10.70;;;;;;;-5.85;94.47;99270.25;5033599;28;20045;-69
2023/11/25 08:09:49;;;;;;;18.13;11.70;;;;;;;-5.62;94.17;99269.63;5033621;28;20467;-67
2023/11/25 08:12:15;;;;;;;19.53;10.77;;;;;;;-6.19;93.54;99168.72;5033648;28;20025;-66
2023/11/25 08:14:41;;;;;;;30.37;14.00;;;;;;;-5.77;93.38;99229.97;5033918;28;20033;-67
2023/11/25 08:17:06;;;;;;;26.73;14.67;;;;;;;-5.56;92.54;99283.97;5033359;28;20120;-66
2023/11/25 08:19:32;;;;;;;25.73;14.07;;;;;;;-5.71;93.29;99278.00;5033053;28;20598;-67
2023/11/25 08:21:58;;;;;;;23.70;12.77;;;;;;;-5.71;94.39;99290.97;5032777;28;20033;-68
2023/11/25 08:24:23;;;;;;;23.70;12.27;;;;;;;-5.75;94.85;99281.72;5033859;28;20517;-67
2023/11/25 08:26:51;;;;;;;27.13;14.27;;;;;;;-5.62;95.16;99304.19;5033869;28;20433;-68
2023/11/25 08:29:17;;;;;;;24.85;13.88;;;;;;;-5.64;94.75;99287.06;5034046;28;20044;-70
2023/11/25 08:31:43;;;;;;;17.58;11.75;;;;;;;-5.59;94.55;99292.78;5034114;28;20068;-70
2023/11/25 08:34:12;;;;;;;23.00;13.53;;;;;;;-5.47;93.66;99312.78;5035664;28;20135;-69
2023/11/25 08:36:47;;;;;;;22.10;14.05;;;;;;;-5.63;91.89;99297.34;5036880;28;20041;-69
2023/11/25 08:39:13;;;;;;;29.90;15.77;;;;;;;-5.54;92.96;99311.47;5033653;28;20037;-69
2023/11/25 08:41:45;;;;;;;32.25;16.88;;;;;;;-5.57;92.68;99316.88;5033292;28;20045;-69
2023/11/25 08:44:14;;;;;;;26.38;13.73;;;;;;;-5.55;93.64;99333.16;5033372;28;20045;-67
2023/11/25 08:46:44;;;;;;;24.25;13.73;;;;;;;-5.60;94.80;99327.44;5033067;28;20037;-68
2023/11/25 08:49:13;;;;;;;21.48;14.30;;;;;;;-5.57;95.04;99319.47;5032066;28;20045;-67
2023/11/25 08:51:46;;;;;;;24.20;16.38;;;;;;;-5.76;93.56;99306.00;5029771;28;20041;-68
2023/11/25 08:54:13;;;;;;;20.55;14.02;;;;;;;-5.80;94.46;99345.97;5033231;28;20481;-67
2023/11/25 08:56:45;;;;;;;26.52;16.52;;;;;;;-6.05;94.83;99325.97;5023578;28;20076;-68
2023/11/25 08:59:17;;;;;;;21.35;13.50;;;;;;;-5.99;96.28;99347.16;5022561;28;20048;-70
2023/11/25 09:01:43;;;;;;;26.35;15.45;;;;;;;-6.12;96.13;99309.09;5021659;28;20068;-65
2023/11/25 09:04:13;;;;;;;19.50;13.18;;;;;;;-5.79;96.12;99339.88;5023693;28;20065;-70
2023/11/25 09:06:39;;;;;;;21.95;14.77;;;;;;;-5.52;95.72;99345.09;5023448;28;20092;-68
2023/11/25 09:09:07;;;;;;;25.90;15.43;;;;;;;-5.48;94.43;99342.25;5022446;28;20136;-67
2023/11/25 09:11:33;;;;;;;24.63;14.65;;;;;;;-5.76;92.75;99345.72;5030051;28;20175;-70
2023/11/25 09:13:59;;;;;;;19.48;12.30;;;;;;;-5.94;93.42;99350.28;5020720;28;20060;-70
2023/11/25 09:16:30;;;;;;;21.37;11.27;;;;;;;-6.14;92.50;99327.31;5021235;28;20470;-69
2023/11/25 09:18:56;;;;;;;15.88;10.60;;;;;;;-6.02;92.72;99360.31;5019639;28;20089;-68
2023/11/25 09:21:22;;;;;;;15.30;10.50;;;;;;;-6.17;93.50;99342.22;5016707;28;20042;-70
2023/11/25 09:23:47;;;;;;;20.83;11.63;;;;;;;-6.22;93.53;99345.09;5012812;28;20442;-70
2023/11/25 09:26:13;;;;;;;20.10;12.80;;;;;;;-6.21;93.69;99344.19;5030757;28;20087;-70
2023/11/25 09:28:41;;;;;;;17.40;12.30;;;;;;;-6.27;93.05;99347.13;5024364;28;20099;-68
2023/11/25 09:31:07;;;;;;;19.38;11.80;;;;;;;-6.27;92.74;99334.19;5027231;28;20068;-67
2023/11/25 09:33:33;;;;;;;17.40;11.30;;;;;;;-6.07;93.44;99374.44;5030239;28;20222;-70
2023/11/25 09:35:59;;;;;;;26.07;13.73;;;;;;;-6.04;93.10;99382.88;5026308;28;20043;-67
2023/11/25 09:38:25;;;;;;;20.05;13.63;;;;;;;-6.16;92.87;99370.66;5024374;28;20069;-68
2023/11/25 09:40:51;;;;;;;21.47;13.10;;;;;;;-5.92;94.75;99376.13;5030656;28;20129;-63
2023/11/25 09:43:18;;;;;;;20.50;11.70;;;;;;;-5.78;93.59;99370.06;5032008;28;20124;-68
2023/11/25 09:45:45;;;;;;;18.92;11.93;;;;;;;-5.72;93.01;99370.53;5031941;28;20040;-70
2023/11/25 09:48:11;;;;;;;23.95;13.43;;;;;;;-5.94;90.59;99350.28;5032430;28;20069;-68
2023/11/25 09:50:37;;;;;;;22.83;13.50;;;;;;;-6.14;91.02;99342.88;5031208;28;20219;-67
2023/11/25 09:53:32;;;;;;;21.10;11.93;;;;;;;-6.16;91.48;99355.09;5032045;28;20276;-68
2023/11/25 09:56:03;;;;;;;16.05;11.00;;;;;;;-6.44;91.09;99323.97;5032005;28;20034;-71
2023/11/25 09:58:32;;;;;;;21.40;13.23;;;;;;;-6.19;91.76;99370.81;5032211;28;20561;-65
2023/11/25 10:00:59;;;;;;;20.92;11.48;;;;;;;-6.17;93.15;99368.16;5030874;28;20033;-68
2023/11/25 10:03:31;;;;;;;21.05;13.10;;;;;;;-6.43;93.56;99290.22;5031898;28;20167;-67
2023/11/25 10:05:57;;;;;;;18.58;12.90;;;;;;;-5.72;92.22;99383.50;5031660;28;20041;-66
2023/11/25 10:08:23;;;;;;;20.27;12.40;;;;;;;-5.59;91.32;99400.88;5031941;28;20120;-69
2023/11/25 10:10:59;;;;;;;21.47;13.33;;;;;;;-5.90;91.07;99360.47;5030621;28;20183;-67
2023/11/25 10:13:25;;;;;;;22.02;12.60;;;;;;;-6.28;91.65;99329.94;5032091;28;20037;-68
2023/11/25 10:15:51;;;;;;;24.48;14.30;;;;;;;-6.05;92.18;99383.81;5031704;28;20367;-67
2023/11/25 10:18:16;;;;;;;18.77;11.57;;;;;;;-5.77;93.14;99403.69;5031488;28;20044;-67
2023/11/25 10:20:43;;;;;;;19.80;13.03;;;;;;;-5.85;92.29;99358.41;5031473;28;20052;-68
2023/11/25 10:23:09;;;;;;;21.45;12.43;;;;;;;-5.64;90.28;99393.41;5031643;28;20025;-65
2023/11/25 10:25:34;;;;;;;20.73;13.60;;;;;;;-5.70;88.95;99417.94;5032001;28;20045;-69
2023/11/25 10:28:01;;;;;;;22.03;13.50;;;;;;;-5.98;90.05;99411.03;5031551;28;20496;-65
2023/11/25 10:30:28;;;;;;;22.65;13.50;;;;;;;-6.02;90.98;99414.72;5031176;28;20052;-66
2023/11/25 10:32:56;;;;;;;22.63;14.52;;;;;;;-6.00;91.42;99420.66;5031239;28;20493;-69
2023/11/25 10:35:25;;;;;;;23.58;15.70;;;;;;;-5.97;92.26;99417.88;5031623;28;20041;-71
2023/11/25 10:37:51;;;;;;;25.47;15.23;;;;;;;-6.04;92.63;99397.59;5029798;28;20037;-71
2023/11/25 10:40:19;;;;;;;28.67;16.13;;;;;;;-6.30;92.30;99352.50;5031570;28;20033;-70
2023/11/25 10:42:45;;;;;;;20.40;12.77;;;;;;;-5.89;91.02;99401.81;5031536;28;20033;-68
2023/11/25 10:45:15;;;;;;;26.00;13.05;;;;;;;-5.81;90.20;99433.31;5030992;28;20034;-71
2023/11/25 10:47:42;;;;;;;27.10;14.18;;;;;;;-6.03;90.14;99414.81;5031247;28;20047;-70
2023/11/25 10:50:08;;;;;;;25.08;14.52;;;;;;;-6.22;91.77;99407.28;5031490;28;20519;-65
2023/11/25 10:52:38;;;;;;;21.90;14.07;;;;;;;-6.04;92.58;99432.13;5031280;28;20039;-68
2023/11/25 10:55:06;;;;;;;26.17;14.15;;;;;;;-6.33;91.43;99404.50;5031186;28;20095;-68
2023/11/25 10:57:33;;;;;;;27.67;14.55;;;;;;;-6.61;91.32;99387.97;5003524;28;20470;-68
2023/11/25 10:59:59;;;;;;;25.88;15.27;;;;;;;-6.52;91.77;99435.81;5031278;28;20466;-70
2023/11/25 11:02:29;;;;;;;31.50;17.52;;;;;;;-6.58;92.94;99437.00;5031719;28;20041;-68
2023/11/25 11:05:02;;;;;;;24.27;15.85;;;;;;;-6.53;93.49;99439.31;5031450;28;20034;-67
2023/11/25 11:07:31;;;;;;;27.38;16.10;;;;;;;-6.65;93.85;99414.97;5030860;28;20133;-69
2023/11/25 11:10:01;;;;;;;30.17;14.75;;;;;;;-6.38;93.25;99442.78;5030710;28;20416;-67
2023/11/25 11:12:43;;;;;;;22.95;13.90;;;;;;;-6.23;92.63;99441.91;5031248;28;20029;-67
2023/11/25 11:15:15;;;;;;;26.80;14.77;;;;;;;-6.43;90.75;99435.25;5031436;28;20442;-67